Flight Track Log - Related Links

Times and Time Zones

All times are in EDT time to prevent confusion due to time zone crossing. See the N606FT flight status page for this flight to view local times or setup timezone preferences in your user account.

Time Position Orientation Groundspeed Altitude Reporting Facility
EDT Latitude Longitude Course Direction KTS MPH feet Rate Location/Type
Fri 04:26:34 PM 26.4572 -80.8108 88° East 101 116 3,400  Level Miami Center
Fri 04:27:34 PM 26.4536 -80.7875 100° East 101 116 3,500  Climbing Miami Center
Fri 04:28:34 PM 26.4503 -80.7525 96° East 101 116 3,400 -150 Descending Miami Center
Fri 04:28:54 PM 26.4486 -80.7408 99° East 119 137 3,300 -133 Descending Miami Center
Fri 04:29:19 PM 26.4447 -80.7314 115° Southeast 99 114 3,300  Level Miami Center
Fri 04:29:34 PM 26.4450 -80.7200 88° East 101 116 3,300 97 Level Miami Center
Fri 04:30:21 PM 26.4372 -80.7011 115° Southeast 91 105 3,400 56 Climbing Miami Center
Fri 04:31:22 PM 26.4317 -80.6731 102° East 98 113 3,400  Level Miami Center
Fri 04:32:00 PM 26.1659 -81.3568 88° East  Level Estimated
Fri 04:32:29 PM 26.4197 -80.6450 115° Southeast 95 109 3,400  Level Miami Center
Fri 04:33:34 PM 26.4081 -80.6167 115° Southeast 87 100 2,500 48 Descending Miami Center
Fri 04:34:34 PM 26.3961 -80.5953 122° Southeast 92 106 3,500 504 Climbing Miami Center
Fri 04:35:33 PM 26.3842 -80.5650 114° Southeast 94 108 3,500 -50 Level Miami Center
Fri 04:36:34 PM 26.3786 -80.5392 103° East 92 106 3,400 -359 Descending Miami Center
Fri 04:37:30 PM 26.3669 -80.5111 115° Southeast 106 122 2,800 -550 Descending Miami Center
Fri 04:38:34 PM 26.3550 -80.4828 115° Southeast 97 112 2,300 -469 Descending Miami Center
Fri 04:39:38 PM 26.3411 -80.4522 117° Southeast 98 113 1,800 -336 Descending Miami Center
Fri 04:40:39 PM 26.3333 -80.4267 109° East 87 100 1,600 -133 Descending Miami Center
Fri 04:41:53 PM 26.3258 -80.3939 104° East 85 98 1,500 -47 Descending Miami Center
Fri 04:42:48 PM 26.3181 -80.3706 110° East 85 98 1,500 52 Level Miami Center
Fri 04:43:49 PM 26.3081 -80.3469 115° Southeast 87 100 1,600  Climbing Miami Center
Fri 04:44:39 PM 26.2961 -80.3258 122° Southeast 93 107 1,500 -162 Descending Miami Center
Fri 04:45:40 PM 26.2822 -80.3022 123° Southeast 98 113 1,300 -197 Descending Miami Center
Fri 04:46:41 PM 26.2681 -80.2786 124° Southeast 89 102 1,100 -94 Descending Miami Center
Fri 04:47:48 PM 26.2497 -80.2550 131° Southeast 80 92 1,100  Level Miami Center
Fri 04:48:49 PM 26.2378 -80.2314 119° Southeast 89 102 1,100 -195 Level Miami Center
Fri 04:49:51 PM 26.2214 -80.2125 134° Southeast 78 90 700 -308 Descending Miami Center
Fri 04:50:46 PM 26.2094 -80.1958 129° Southeast 68 78 500 -218 Descending Miami Center
Fri 04:52:00 PM 26.1973 -80.1707 130° Southeast  Level Estimated
Fri 04:59:00 PM 26.1973 -80.1707 130° Southeast  Level Estimated
Fri 05:00:00 PM 26.1973 -80.1707 130° Southeast  Level Estimated

Login

Don't have an account? Register now (free) for customized features, flight alerts, and more!